createdAt,value
2018-08-03T00:02:22.771Z,3.77
2018-08-03T00:04:51.980Z,4.00
2018-08-03T00:07:27.790Z,5.80
2018-08-03T00:09:57.042Z,4.63
2018-08-03T00:12:26.226Z,4.97
2018-08-03T00:14:55.534Z,4.27
2018-08-03T00:17:24.834Z,4.27
2018-08-03T00:19:54.018Z,3.20
2018-08-03T00:22:23.256Z,3.80
2018-08-03T00:24:52.461Z,4.40
2018-08-03T00:27:21.783Z,5.67
2018-08-03T00:29:50.994Z,5.40
2018-08-03T00:32:20.158Z,4.03
2018-08-03T00:34:49.406Z,5.10
2018-08-03T00:37:18.593Z,3.73
2018-08-03T00:39:47.789Z,6.57
2018-08-03T00:42:16.976Z,4.43
2018-08-03T00:44:46.147Z,3.10
2018-08-03T00:47:15.310Z,3.23
2018-08-03T00:49:44.462Z,4.13
2018-08-03T00:52:13.662Z,3.50
2018-08-03T00:54:42.806Z,3.70
2018-08-03T00:57:11.983Z,3.50
2018-08-03T00:59:41.139Z,3.70
2018-08-03T01:02:10.357Z,3.50
2018-08-03T01:04:39.514Z,3.97
2018-08-03T01:07:08.703Z,3.83
2018-08-03T01:09:37.906Z,4.90
2018-08-03T01:12:07.119Z,3.43
2018-08-03T01:14:36.282Z,3.30
2018-08-03T01:17:05.467Z,3.30
2018-08-03T01:19:34.710Z,4.23
2018-08-03T01:22:03.914Z,3.23
2018-08-03T01:24:33.070Z,3.20
2018-08-03T01:27:02.235Z,3.60
2018-08-03T01:29:31.387Z,3.83
2018-08-03T01:32:00.613Z,4.20
2018-08-03T01:34:29.762Z,3.90
2018-08-03T01:36:59.017Z,4.23
2018-08-03T01:39:28.177Z,3.73
2018-08-03T01:41:57.345Z,5.53
2018-08-03T01:44:26.519Z,3.50
2018-08-03T01:46:55.702Z,5.90
2018-08-03T01:49:25.072Z,4.00
2018-08-03T01:51:54.230Z,3.30
2018-08-03T01:54:23.398Z,4.00
2018-08-03T01:56:52.557Z,4.50
2018-08-03T01:59:21.742Z,3.43
2018-08-03T02:01:50.903Z,5.03
2018-08-03T02:04:20.069Z,3.83
2018-08-03T02:06:49.258Z,3.80
2018-08-03T02:09:18.396Z,3.67
2018-08-03T02:11:47.611Z,3.83
2018-08-03T02:14:16.745Z,3.10
2018-08-03T02:16:45.910Z,3.47
2018-08-03T02:19:15.091Z,4.77
2018-08-03T02:21:44.246Z,4.30
2018-08-03T02:24:13.410Z,3.47
2018-08-03T02:26:42.674Z,3.60
2018-08-03T02:29:11.827Z,5.13
2018-08-03T02:31:41.008Z,3.67
2018-08-03T02:34:10.180Z,6.00
2018-08-03T02:36:39.356Z,3.37
2018-08-03T02:39:09.991Z,3.37
2018-08-03T02:41:39.519Z,3.90
2018-08-03T02:44:09.310Z,3.57
2018-08-03T02:46:38.736Z,4.77
2018-08-03T02:49:08.010Z,3.47
2018-08-03T02:51:37.267Z,3.60
2018-08-03T02:54:06.405Z,5.83
2018-08-03T02:56:35.588Z,5.80
2018-08-03T02:59:04.730Z,4.80
2018-08-03T03:01:33.981Z,5.00
2018-08-03T03:04:03.147Z,3.67
2018-08-03T03:06:32.320Z,3.43
2018-08-03T03:09:01.467Z,3.73
2018-08-03T03:11:30.642Z,3.43
2018-08-03T03:13:59.842Z,3.70
2018-08-03T03:16:29.014Z,3.80
2018-08-03T03:18:58.239Z,3.70
2018-08-03T03:21:27.431Z,3.77
2018-08-03T03:23:56.610Z,3.70
2018-08-03T03:26:25.807Z,3.70
2018-08-03T03:28:55.036Z,3.60
2018-08-03T03:31:24.235Z,4.17
2018-08-03T03:33:53.994Z,4.70
2018-08-03T03:36:23.186Z,4.60
2018-08-03T03:38:52.345Z,3.63
2018-08-03T03:41:24.487Z,3.43
2018-08-03T03:43:53.661Z,3.37
2018-08-03T03:46:22.831Z,4.43
2018-08-03T03:48:52.010Z,4.50
2018-08-03T03:51:21.158Z,5.27
2018-08-03T03:53:50.335Z,4.17
2018-08-03T03:56:19.490Z,4.77
2018-08-03T03:58:48.694Z,5.90
2018-08-03T04:01:17.881Z,4.27
2018-08-03T04:03:47.079Z,3.93
2018-08-03T04:06:16.255Z,3.60
2018-08-03T04:08:45.422Z,3.97
2018-08-03T04:11:14.574Z,4.83
2018-08-03T04:13:43.785Z,5.33
2018-08-03T04:16:12.937Z,4.07
2018-08-03T04:18:42.119Z,3.60
2018-08-03T04:21:11.250Z,3.80
2018-08-03T04:23:40.458Z,3.80
2018-08-03T04:26:09.606Z,4.40
2018-08-03T04:28:38.774Z,3.90
2018-08-03T04:31:07.942Z,3.90
2018-08-03T04:33:37.117Z,3.93
2018-08-03T04:36:06.342Z,4.10
2018-08-03T04:38:35.511Z,5.47
2018-08-03T04:41:04.721Z,3.90
2018-08-03T04:43:33.975Z,4.37
2018-08-03T04:46:03.151Z,5.30
2018-08-03T04:48:32.375Z,6.90
2018-08-03T04:51:01.506Z,5.83
2018-08-03T04:53:30.754Z,5.40
2018-08-03T04:56:00.260Z,5.07
2018-08-03T04:58:29.456Z,4.17
2018-08-03T05:00:58.619Z,5.23
2018-08-03T05:03:27.808Z,4.40
2018-08-03T05:05:57.051Z,3.80
2018-08-03T05:08:26.261Z,4.07
2018-08-03T05:10:55.414Z,6.43
2018-08-03T05:13:24.610Z,5.07
2018-08-03T05:15:53.770Z,4.10
2018-08-03T05:18:22.949Z,4.37
2018-08-03T05:20:52.110Z,4.67
2018-08-03T05:23:21.323Z,5.10
2018-08-03T05:25:50.490Z,4.50
2018-08-03T05:28:19.674Z,6.20
2018-08-03T05:30:48.863Z,5.33
2018-08-03T05:33:18.100Z,5.20
2018-08-03T05:35:47.208Z,4.70
2018-08-03T05:38:16.486Z,3.87
2018-08-03T05:40:45.661Z,6.90
2018-08-03T05:43:14.851Z,4.87
2018-08-03T05:45:44.074Z,4.10
2018-08-03T05:48:13.297Z,7.60
2018-08-03T05:50:42.480Z,5.50
2018-08-03T05:53:11.685Z,6.83
2018-08-03T05:55:40.897Z,5.17
2018-08-03T05:58:10.079Z,5.40
2018-08-03T06:00:39.251Z,5.40
2018-08-03T06:03:08.444Z,7.03
2018-08-03T06:05:37.605Z,4.93
2018-08-03T06:08:06.813Z,11.10
2018-08-03T06:10:36.114Z,5.53
2018-08-03T06:13:05.373Z,7.07
2018-08-03T06:15:34.539Z,6.60
2018-08-03T06:18:03.750Z,6.30
2018-08-03T06:20:32.941Z,5.67
2018-08-03T06:23:02.101Z,7.70
2018-08-03T06:25:31.263Z,5.80
2018-08-03T06:28:00.443Z,6.10
2018-08-03T06:30:29.636Z,5.93
2018-08-03T06:32:58.842Z,5.60
2018-08-03T06:35:28.054Z,6.10
2018-08-03T06:37:57.282Z,5.93
2018-08-03T06:40:27.830Z,7.47
2018-08-03T06:42:57.123Z,6.37
2018-08-03T06:45:26.315Z,7.57
2018-08-03T06:47:55.614Z,9.23
2018-08-03T06:50:24.818Z,6.57
2018-08-03T06:52:54.056Z,6.73
2018-08-03T06:55:23.234Z,7.47
2018-08-03T06:57:52.390Z,5.80
2018-08-03T07:00:21.651Z,6.67
2018-08-03T07:02:50.870Z,5.23
2018-08-03T07:05:20.043Z,6.13
2018-08-03T07:07:49.223Z,5.10
2018-08-03T07:10:18.482Z,6.77
2018-08-03T07:12:47.674Z,4.77
2018-08-03T07:15:16.855Z,5.63
2018-08-03T07:17:46.020Z,5.43
2018-08-03T07:20:15.273Z,7.60
2018-08-03T07:22:44.447Z,8.23
2018-08-03T07:25:13.694Z,8.13
2018-08-03T07:27:42.915Z,6.20
2018-08-03T07:30:12.125Z,7.57
2018-08-03T07:32:41.318Z,6.07
2018-08-03T07:35:10.539Z,8.10
2018-08-03T07:37:39.727Z,5.53
2018-08-03T07:40:09.020Z,5.33
2018-08-03T07:42:38.094Z,9.40
2018-08-03T07:45:07.314Z,12.17
2018-08-03T07:47:36.459Z,5.93
2018-08-03T07:50:05.822Z,6.23
2018-08-03T07:52:34.976Z,7.20
2018-08-03T07:55:04.195Z,7.70
2018-08-03T07:57:33.404Z,10.03
2018-08-03T08:00:02.659Z,7.13
2018-08-03T08:02:31.822Z,7.53
2018-08-03T08:05:01.006Z,7.17
2018-08-03T08:07:30.198Z,8.30
2018-08-03T08:09:59.409Z,8.83
2018-08-03T08:12:28.555Z,6.70
2018-08-03T08:14:57.814Z,7.17
2018-08-03T08:17:27.007Z,7.13
2018-08-03T08:19:56.184Z,7.00
2018-08-03T08:22:25.378Z,7.63
2018-08-03T08:24:55.112Z,6.90
2018-08-03T08:27:24.551Z,7.87
2018-08-03T08:29:53.874Z,6.27
2018-08-03T08:32:23.194Z,6.20
2018-08-03T08:34:52.407Z,6.43
2018-08-03T08:37:21.617Z,6.00
2018-08-03T08:39:50.806Z,6.20
2018-08-03T08:42:20.006Z,7.13
2018-08-03T08:44:49.310Z,7.37
2018-08-03T08:47:18.509Z,10.83
2018-08-03T08:49:47.699Z,8.47
2018-08-03T08:52:16.882Z,6.90
2018-08-03T08:54:46.102Z,6.73
2018-08-03T08:57:15.249Z,6.70
2018-08-03T08:59:44.592Z,7.30
2018-08-03T09:02:13.701Z,6.23
2018-08-03T09:04:42.881Z,7.40
2018-08-03T09:07:12.090Z,12.30
2018-08-03T09:09:41.321Z,6.63
2018-08-03T09:12:10.491Z,9.53
2018-08-03T09:14:39.679Z,7.57
2018-08-03T09:17:08.927Z,6.23
2018-08-03T09:19:38.126Z,6.90
2018-08-03T09:22:07.386Z,9.50
2018-08-03T09:24:36.595Z,9.57
2018-08-03T09:27:06.019Z,8.93
2018-08-03T09:29:35.196Z,10.50
2018-08-03T09:32:04.480Z,7.23
2018-08-03T09:34:33.679Z,6.70
2018-08-03T09:37:02.871Z,7.60
2018-08-03T09:39:32.188Z,6.87
2018-08-03T09:42:01.414Z,8.97
2018-08-03T09:44:30.634Z,7.73
2018-08-03T09:46:59.810Z,8.77
2018-08-03T09:49:29.027Z,7.10
2018-08-03T09:51:58.176Z,6.50
2018-08-03T09:54:27.413Z,7.40
2018-08-03T09:56:56.625Z,8.37
2018-08-03T09:59:25.809Z,7.33
2018-08-03T10:01:55.007Z,6.90
2018-08-03T10:04:24.182Z,13.37
2018-08-03T10:06:53.441Z,7.37
2018-08-03T10:09:22.598Z,8.00
2018-08-03T10:11:51.778Z,10.83
2018-08-03T10:14:20.930Z,7.10
2018-08-03T10:16:50.122Z,7.57
2018-08-03T10:19:19.286Z,8.07
2018-08-03T10:21:48.500Z,6.80
2018-08-03T10:24:17.698Z,8.50
2018-08-03T10:26:46.939Z,6.73
2018-08-03T10:29:16.126Z,8.03
2018-08-03T10:31:45.394Z,7.07
2018-08-03T10:34:14.582Z,7.77
2018-08-03T10:36:43.827Z,13.00
2018-08-03T10:39:13.008Z,8.83
2018-08-03T10:41:42.217Z,7.73
2018-08-03T10:44:12.014Z,8.60
2018-08-03T10:46:41.226Z,6.63
2018-08-03T10:49:10.442Z,6.77
2018-08-03T10:51:39.646Z,10.20
2018-08-03T10:54:08.875Z,6.53
2018-08-03T10:56:38.326Z,12.93
2018-08-03T10:59:07.518Z,8.27
2018-08-03T11:01:36.761Z,8.13
2018-08-03T11:04:05.979Z,6.47
2018-08-03T11:06:35.237Z,7.00
2018-08-03T11:09:06.678Z,7.30
2018-08-03T11:11:36.254Z,13.33
2018-08-03T11:14:05.517Z,8.43
2018-08-03T11:16:34.721Z,7.87
2018-08-03T11:19:03.913Z,9.57
2018-08-03T11:21:33.210Z,8.50
2018-08-03T11:24:02.708Z,7.23
2018-08-03T11:26:31.880Z,6.20
2018-08-03T11:29:01.122Z,6.13
2018-08-03T11:31:30.277Z,5.63
2018-08-03T11:33:59.524Z,7.50
2018-08-03T11:36:28.671Z,6.67
2018-08-03T11:38:57.842Z,6.80
2018-08-03T11:41:27.034Z,6.00
2018-08-03T11:43:56.303Z,6.47
2018-08-03T11:46:25.477Z,7.07
2018-08-03T11:48:54.726Z,6.10
2018-08-03T11:51:23.894Z,6.13
2018-08-03T11:53:53.082Z,6.03
2018-08-03T11:56:22.374Z,6.67
2018-08-03T11:58:51.556Z,5.40
2018-08-03T12:01:20.890Z,6.20
2018-08-03T12:03:50.274Z,5.47
2018-08-03T12:06:19.453Z,9.40
2018-08-03T12:08:48.594Z,6.87
2018-08-03T12:11:17.811Z,7.10
2018-08-03T12:13:46.953Z,6.00
2018-08-03T12:16:16.117Z,9.63
2018-08-03T12:18:45.293Z,8.23
2018-08-03T12:21:14.486Z,5.50
2018-08-03T12:23:43.660Z,7.27
2018-08-03T12:26:12.930Z,7.07
2018-08-03T12:28:42.158Z,10.00
2018-08-03T12:31:11.328Z,7.17
2018-08-03T12:33:40.566Z,9.30
2018-08-03T12:36:09.689Z,8.20
2018-08-03T12:38:38.834Z,10.57
2018-08-03T12:41:08.046Z,7.80
2018-08-03T12:43:37.350Z,7.93
2018-08-03T12:46:06.567Z,6.00
2018-08-03T12:48:35.723Z,5.23
2018-08-03T12:51:04.859Z,7.30
2018-08-03T12:53:34.030Z,11.27
2018-08-03T12:56:03.189Z,5.93
2018-08-03T12:58:32.457Z,5.80
2018-08-03T13:01:01.598Z,6.47
2018-08-03T13:03:30.815Z,8.57
2018-08-03T13:05:59.932Z,5.03
2018-08-03T13:08:29.206Z,10.83
2018-08-03T13:10:58.206Z,6.30
2018-08-03T13:13:27.371Z,6.20
2018-08-03T13:15:56.597Z,5.70
2018-08-03T13:18:25.738Z,6.80
2018-08-03T13:20:54.885Z,6.03
2018-08-03T13:23:24.077Z,5.97
2018-08-03T13:25:53.206Z,6.17
2018-08-03T13:28:22.360Z,6.60
2018-08-03T13:30:51.507Z,5.87
2018-08-03T13:33:20.670Z,6.80
2018-08-03T13:35:49.837Z,8.17
2018-08-03T13:38:19.075Z,7.80
2018-08-03T13:40:48.270Z,7.77
2018-08-03T13:43:17.493Z,8.37
2018-08-03T13:45:46.670Z,5.97
2018-08-03T13:48:15.881Z,9.10
2018-08-03T13:50:45.022Z,11.50
2018-08-03T13:53:14.304Z,9.73
2018-08-03T13:55:43.442Z,5.90
2018-08-03T13:58:12.595Z,6.10
2018-08-03T14:00:41.757Z,8.27
2018-08-03T14:03:10.942Z,8.70
2018-08-03T14:05:40.186Z,5.87
2018-08-03T14:08:09.450Z,6.43
2018-08-03T14:10:38.728Z,5.67
2018-08-03T14:13:07.863Z,12.23
2018-08-03T14:15:37.145Z,5.23
2018-08-03T14:18:06.419Z,7.60
2018-08-03T14:20:35.755Z,5.53
2018-08-03T14:23:04.931Z,6.90
2018-08-03T14:25:34.234Z,6.80
2018-08-03T14:28:03.310Z,5.80
2018-08-03T14:30:32.555Z,6.20
2018-08-03T14:33:01.697Z,6.83
2018-08-03T14:35:30.906Z,8.47
2018-08-03T14:38:00.083Z,7.03
2018-08-03T14:40:29.341Z,6.00
2018-08-03T14:42:58.538Z,5.87
2018-08-03T14:45:27.709Z,6.33
2018-08-03T14:47:56.885Z,5.97
2018-08-03T14:50:26.078Z,6.03
2018-08-03T14:52:55.352Z,5.97
2018-08-03T14:55:24.562Z,6.17
2018-08-03T14:57:53.713Z,7.90
2018-08-03T15:00:22.882Z,8.00
2018-08-03T15:02:52.101Z,6.43
2018-08-03T15:05:21.265Z,8.20
2018-08-03T15:07:50.460Z,6.37
2018-08-03T15:10:19.620Z,7.10
2018-08-03T15:12:48.815Z,5.70
2018-08-03T15:15:18.130Z,7.53
2018-08-03T15:17:47.270Z,5.60
2018-08-03T15:20:16.494Z,5.63
2018-08-03T15:22:46.705Z,5.70
2018-08-03T15:25:15.934Z,7.97
2018-08-03T15:27:45.102Z,9.63
2018-08-03T15:30:14.346Z,10.60
2018-08-03T15:32:43.546Z,7.33
2018-08-03T15:35:12.826Z,6.23
2018-08-03T15:37:42.019Z,5.70
2018-08-03T15:40:11.210Z,7.13
2018-08-03T15:42:40.334Z,6.40
2018-08-03T15:45:09.938Z,8.87
2018-08-03T15:47:39.107Z,6.77
2018-08-03T15:50:08.391Z,7.47
2018-08-03T15:52:37.592Z,6.00
2018-08-03T15:55:06.871Z,8.00
2018-08-03T15:57:36.114Z,7.30
2018-08-03T16:00:06.949Z,6.50
2018-08-03T16:02:36.220Z,8.40
2018-08-03T16:05:05.923Z,5.40
2018-08-03T16:07:35.062Z,5.70
2018-08-03T16:10:04.687Z,7.50
2018-08-03T16:12:33.917Z,10.17
2018-08-03T16:15:03.102Z,5.53
2018-08-03T16:17:32.318Z,8.57
2018-08-03T16:20:01.454Z,5.87
2018-08-03T16:22:30.759Z,7.17
2018-08-03T16:24:59.942Z,5.93
2018-08-03T16:27:29.107Z,7.70
2018-08-03T16:29:58.332Z,5.90
2018-08-03T16:32:27.479Z,8.97
2018-08-03T16:34:56.684Z,6.43
2018-08-03T16:37:25.905Z,9.87
2018-08-03T16:39:55.065Z,8.00
2018-08-03T16:42:24.342Z,9.77
2018-08-03T16:44:53.594Z,8.53
2018-08-03T16:47:22.749Z,7.10
2018-08-03T16:49:51.915Z,6.90
2018-08-03T16:52:21.079Z,7.20
2018-08-03T16:54:50.387Z,6.90
2018-08-03T16:57:19.689Z,10.67
2018-08-03T16:59:48.882Z,19.13
2018-08-03T17:02:18.073Z,6.37
2018-08-03T17:04:47.210Z,7.73
2018-08-03T17:07:16.475Z,5.47
2018-08-03T17:09:45.563Z,7.43
2018-08-03T17:12:14.722Z,7.10
2018-08-03T17:14:44.202Z,6.60
2018-08-03T17:17:13.350Z,6.77
2018-08-03T17:19:42.490Z,6.60
2018-08-03T17:22:11.814Z,9.03
2018-08-03T17:24:40.946Z,6.20
2018-08-03T17:27:10.110Z,12.87
2018-08-03T17:29:39.333Z,14.33
2018-08-03T17:32:08.506Z,11.03
2018-08-03T17:34:37.841Z,5.40
2018-08-03T17:37:07.013Z,7.53
2018-08-03T17:39:36.155Z,6.97
2018-08-03T17:42:05.350Z,8.87
2018-08-03T17:44:41.061Z,9.60
2018-08-03T17:47:10.368Z,9.53
2018-08-03T17:49:40.108Z,6.30
2018-08-03T17:52:09.313Z,6.33
2018-08-03T17:54:38.549Z,15.20
2018-08-03T17:57:07.862Z,12.30
2018-08-03T17:59:37.106Z,10.27
2018-08-03T18:02:06.284Z,18.10
2018-08-03T18:04:35.509Z,17.33
2018-08-03T18:07:04.786Z,9.53
2018-08-03T18:09:34.053Z,6.90
2018-08-03T18:12:03.162Z,8.50
2018-08-03T18:14:32.342Z,11.10
2018-08-03T18:17:01.515Z,9.60
2018-08-03T18:19:30.711Z,10.83
2018-08-03T18:21:59.892Z,9.70
2018-08-03T18:24:29.059Z,9.00
2018-08-03T18:26:58.277Z,9.17
2018-08-03T18:29:27.458Z,8.63
2018-08-03T18:31:56.635Z,10.57
2018-08-03T18:34:26.015Z,12.37
2018-08-03T18:36:55.299Z,16.30
2018-08-03T18:39:24.506Z,11.27
2018-08-03T18:41:53.690Z,8.87
2018-08-03T18:44:22.864Z,13.77
2018-08-03T18:46:52.014Z,10.23
2018-08-03T18:49:21.253Z,13.50
2018-08-03T18:51:50.410Z,11.10
2018-08-03T18:54:19.706Z,14.53
2018-08-03T18:56:48.897Z,12.60
2018-08-03T18:59:18.125Z,15.27
2018-08-03T19:01:47.291Z,13.87
2018-08-03T19:04:16.461Z,11.70
2018-08-03T19:06:45.630Z,14.00
2018-08-03T19:09:14.801Z,9.40
2018-08-03T19:11:43.950Z,14.70
2018-08-03T19:14:13.186Z,13.80
2018-08-03T19:16:42.479Z,11.67
2018-08-03T19:19:11.660Z,12.83
2018-08-03T19:21:40.854Z,12.30
2018-08-03T19:24:10.059Z,12.70
2018-08-03T19:26:39.325Z,14.23
2018-08-03T19:29:08.661Z,11.37
2018-08-03T19:31:37.929Z,9.83
2018-08-03T19:34:07.166Z,7.30
2018-08-03T19:36:36.354Z,11.10
2018-08-03T19:39:09.254Z,11.63
2018-08-03T19:41:38.525Z,9.97
2018-08-03T19:44:07.713Z,11.30
2018-08-03T19:46:37.146Z,7.90
2018-08-03T19:49:06.550Z,7.73
2018-08-03T19:51:35.705Z,10.70
2018-08-03T19:54:04.932Z,9.77
2018-08-03T19:56:34.102Z,12.23
2018-08-03T19:59:03.379Z,9.83
2018-08-03T20:01:32.486Z,9.80
2018-08-03T20:04:01.730Z,10.30
2018-08-03T20:06:30.998Z,8.37
2018-08-03T20:09:00.202Z,8.77
2018-08-03T20:11:29.378Z,8.80
2018-08-03T20:13:58.531Z,7.37
2018-08-03T20:16:27.782Z,7.77
2018-08-03T20:18:56.954Z,7.90
2018-08-03T20:21:26.190Z,8.80
2018-08-03T20:23:55.436Z,8.73
2018-08-03T20:26:24.588Z,6.80
2018-08-03T20:28:53.856Z,5.83
2018-08-03T20:31:23.099Z,8.33
2018-08-03T20:33:52.398Z,6.50
2018-08-03T20:36:21.594Z,15.97
2018-08-03T20:38:50.749Z,7.77
2018-08-03T20:41:19.942Z,9.93
2018-08-03T20:43:49.179Z,6.33
2018-08-03T20:46:18.399Z,6.23
2018-08-03T20:48:47.602Z,5.60
2018-08-03T20:51:16.790Z,7.13
2018-08-03T20:53:46.065Z,5.50
2018-08-03T20:56:15.217Z,6.80
2018-08-03T20:58:44.392Z,8.60
2018-08-03T21:01:13.575Z,8.03
2018-08-03T21:03:42.734Z,7.70
2018-08-03T21:06:11.902Z,5.73
2018-08-03T21:08:41.054Z,5.60
2018-08-03T21:11:10.262Z,6.33
2018-08-03T21:13:39.460Z,7.73
2018-08-03T21:16:08.652Z,6.90
2018-08-03T21:18:37.809Z,6.20
2018-08-03T21:21:07.008Z,7.70
2018-08-03T21:23:36.206Z,6.10
2018-08-03T21:26:05.371Z,7.40
2018-08-03T21:28:34.598Z,6.23
2018-08-03T21:31:03.770Z,6.50
2018-08-03T21:33:32.969Z,6.17
2018-08-03T21:36:02.198Z,6.40
2018-08-03T21:38:31.409Z,5.93
2018-08-03T21:41:00.578Z,5.87
2018-08-03T21:43:29.766Z,7.03
2018-08-03T21:45:58.966Z,7.00
2018-08-03T21:48:28.154Z,6.83
2018-08-03T21:50:57.286Z,5.43
2018-08-03T21:53:26.479Z,5.07
2018-08-03T21:55:55.644Z,5.87
2018-08-03T21:58:24.780Z,5.70
2018-08-03T22:00:53.976Z,9.20
2018-08-03T22:03:23.174Z,6.27
2018-08-03T22:05:52.295Z,9.10
2018-08-03T22:08:21.471Z,6.00
2018-08-03T22:10:50.986Z,6.70
2018-08-03T22:13:20.422Z,6.60
2018-08-03T22:15:49.550Z,5.57
2018-08-03T22:18:18.798Z,8.27
2018-08-03T22:20:47.938Z,6.77
2018-08-03T22:23:17.114Z,5.43
2018-08-03T22:25:46.262Z,6.37
2018-08-03T22:28:15.457Z,5.70
2018-08-03T22:30:44.648Z,6.17
2018-08-03T22:33:13.866Z,7.70
2018-08-03T22:35:43.147Z,5.43
2018-08-03T22:38:12.318Z,5.57
2018-08-03T22:40:41.691Z,5.80
2018-08-03T22:43:11.067Z,5.40
2018-08-03T22:45:40.476Z,5.23
2018-08-03T22:48:09.636Z,5.63
2018-08-03T22:50:39.024Z,7.30
2018-08-03T22:53:08.474Z,7.63
2018-08-03T22:55:37.668Z,5.50
2018-08-03T22:58:06.842Z,6.87
2018-08-03T23:00:36.049Z,5.27
2018-08-03T23:03:05.280Z,5.57
2018-08-03T23:05:34.455Z,6.70
2018-08-03T23:08:03.608Z,6.07
2018-08-03T23:10:32.778Z,5.03
2018-08-03T23:13:02.037Z,6.50
2018-08-03T23:15:31.274Z,5.63
2018-08-03T23:18:00.446Z,5.80
2018-08-03T23:20:29.629Z,5.23
2018-08-03T23:22:58.822Z,5.03
2018-08-03T23:25:28.028Z,6.40
2018-08-03T23:27:57.554Z,7.40
2018-08-03T23:30:26.731Z,5.10
2018-08-03T23:32:55.987Z,4.83
2018-08-03T23:35:25.126Z,5.40
2018-08-03T23:37:54.263Z,7.90
2018-08-03T23:40:23.474Z,8.23
2018-08-03T23:42:52.642Z,5.30
2018-08-03T23:45:21.808Z,4.83
2018-08-03T23:47:50.946Z,6.73
2018-08-03T23:50:20.179Z,7.77
2018-08-03T23:52:49.935Z,5.13
2018-08-03T23:55:19.134Z,4.83
2018-08-03T23:57:48.303Z,6.03
